sensor_id;sensor_type;location;lat;lon;timestamp;pressure;altitude;pressure_sealevel;temperature;humidity
47530;BME280;33272;51.922;7.730;2023-05-12T00:01:01;145959.59;;;13.95;100.00
47530;BME280;33272;51.922;7.730;2023-05-12T00:03:28;145951.97;;;13.91;100.00
47530;BME280;33272;51.922;7.730;2023-05-12T00:05:55;145940.50;;;13.87;100.00
47530;BME280;33272;51.922;7.730;2023-05-12T00:08:25;145940.50;;;13.87;100.00
47530;BME280;33272;51.922;7.730;2023-05-12T00:10:52;145931.59;;;13.83;100.00
47530;BME280;33272;51.922;7.730;2023-05-12T00:13:19;145927.81;;;13.82;100.00
47530;BME280;33272;51.922;7.730;2023-05-12T00:15:48;145921.44;;;13.79;100.00
47530;BME280;33272;51.922;7.730;2023-05-12T00:18:17;145917.66;;;13.78;100.00
47530;BME280;33272;51.922;7.730;2023-05-12T00:20:43;145915.09;;;13.77;100.00
47530;BME280;33272;51.922;7.730;2023-05-12T00:23:11;145917.66;;;13.78;100.00
47530;BME280;33272;51.922;7.730;2023-05-12T00:25:38;145915.09;;;13.77;100.00
47530;BME280;33272;51.922;7.730;2023-05-12T00:28:06;145912.56;;;13.76;100.00
47530;BME280;33272;51.922;7.730;2023-05-12T00:30:33;145912.56;;;13.76;100.00
47530;BME280;33272;51.922;7.730;2023-05-12T00:33:00;145902.41;;;13.72;100.00
47530;BME280;33272;51.922;7.730;2023-05-12T00:35:29;145899.84;;;13.71;100.00
47530;BME280;33272;51.922;7.730;2023-05-12T00:37:56;145897.31;;;13.70;100.00
47530;BME280;33272;51.922;7.730;2023-05-12T00:40:23;145892.22;;;13.67;100.00
47530;BME280;33272;51.922;7.730;2023-05-12T00:42:50;145889.69;;;13.66;100.00
47530;BME280;33272;51.922;7.730;2023-05-12T00:45:17;145885.84;;;13.65;100.00
47530;BME280;33272;51.922;7.730;2023-05-12T00:47:45;145887.16;;;13.65;100.00
47530;BME280;33272;51.922;7.730;2023-05-12T00:50:12;145887.16;;;13.65;100.00
47530;BME280;33272;51.922;7.730;2023-05-12T00:52:41;145888.44;;;13.66;100.00
47530;BME280;33272;51.922;7.730;2023-05-12T00:55:09;145890.94;;;13.67;100.00
47530;BME280;33272;51.922;7.730;2023-05-12T00:57:37;145898.56;;;13.70;100.00
47530;BME280;33272;51.922;7.730;2023-05-12T01:00:06;145897.31;;;13.70;100.00
47530;BME280;33272;51.922;7.730;2023-05-12T01:02:33;145896.06;;;13.69;100.00
47530;BME280;33272;51.922;7.730;2023-05-12T01:05:01;145902.41;;;13.72;100.00
47530;BME280;33272;51.922;7.730;2023-05-12T01:07:31;145897.31;;;13.70;100.00
47530;BME280;33272;51.922;7.730;2023-05-12T01:10:00;145894.78;;;13.68;100.00
47530;BME280;33272;51.922;7.730;2023-05-12T01:12:28;145894.78;;;13.68;100.00
47530;BME280;33272;51.922;7.730;2023-05-12T01:14:57;145896.06;;;13.69;100.00
47530;BME280;33272;51.922;7.730;2023-05-12T01:17:30;145898.56;;;13.70;100.00
47530;BME280;33272;51.922;7.730;2023-05-12T01:20:00;145894.78;;;13.68;100.00
47530;BME280;33272;51.922;7.730;2023-05-12T01:22:28;145902.41;;;13.72;100.00
47530;BME280;33272;51.922;7.730;2023-05-12T01:25:01;145902.41;;;13.72;100.00
47530;BME280;33272;51.922;7.730;2023-05-12T01:27:30;145902.41;;;13.72;100.00
47530;BME280;33272;51.922;7.730;2023-05-12T01:30:00;145902.41;;;13.72;100.00
47530;BME280;33272;51.922;7.730;2023-05-12T01:32:28;145899.84;;;13.71;100.00
47530;BME280;33272;51.922;7.730;2023-05-12T01:34:55;145898.56;;;13.70;100.00
47530;BME280;33272;51.922;7.730;2023-05-12T01:37:22;145894.78;;;13.68;100.00
47530;BME280;33272;51.922;7.730;2023-05-12T01:39:51;145897.31;;;13.70;100.00
47530;BME280;33272;51.922;7.730;2023-05-12T01:42:18;145898.56;;;13.70;100.00
47530;BME280;33272;51.922;7.730;2023-05-12T01:44:46;145893.47;;;13.68;100.00
47530;BME280;33272;51.922;7.730;2023-05-12T01:47:13;145889.69;;;13.66;100.00
47530;BME280;33272;51.922;7.730;2023-05-12T01:49:51;145882.06;;;13.63;100.00
47530;BME280;33272;51.922;7.730;2023-05-12T01:52:19;145876.97;;;13.61;100.00
47530;BME280;33272;51.922;7.730;2023-05-12T01:54:46;145873.16;;;13.60;100.00
47530;BME280;33272;51.922;7.730;2023-05-12T01:57:13;145871.91;;;13.59;100.00
47530;BME280;33272;51.922;7.730;2023-05-12T01:59:40;145865.56;;;13.57;100.00
47530;BME280;33272;51.922;7.730;2023-05-12T02:02:08;145861.72;;;13.55;100.00
47530;BME280;33272;51.922;7.730;2023-05-12T02:04:36;145855.41;;;13.53;100.00
47530;BME280;33272;51.922;7.730;2023-05-12T02:07:03;145847.78;;;13.50;100.00
47530;BME280;33272;51.922;7.730;2023-05-12T02:09:31;145845.19;;;13.49;100.00
47530;BME280;33272;51.922;7.730;2023-05-12T02:11:58;145842.69;;;13.48;100.00
47530;BME280;33272;51.922;7.730;2023-05-12T02:14:25;145840.16;;;13.47;100.00
47530;BME280;33272;51.922;7.730;2023-05-12T02:16:52;145840.16;;;13.47;100.00
47530;BME280;33272;51.922;7.730;2023-05-12T02:19:21;145826.16;;;13.41;100.00
47530;BME280;33272;51.922;7.730;2023-05-12T02:21:48;145823.66;;;13.40;100.00
47530;BME280;33272;51.922;7.730;2023-05-12T02:24:15;145824.91;;;13.40;100.00
47530;BME280;33272;51.922;7.730;2023-05-12T02:26:42;145816.03;;;13.37;100.00
47530;BME280;33272;51.922;7.730;2023-05-12T02:29:09;145810.91;;;13.35;100.00
47530;BME280;33272;51.922;7.730;2023-05-12T02:31:36;145805.81;;;13.33;100.00
47530;BME280;33272;51.922;7.730;2023-05-12T02:34:04;145810.91;;;13.35;100.00
47530;BME280;33272;51.922;7.730;2023-05-12T02:36:32;145804.56;;;13.32;100.00
47530;BME280;33272;51.922;7.730;2023-05-12T02:38:59;145802.03;;;13.31;100.00
47530;BME280;33272;51.922;7.730;2023-05-12T02:41:26;145802.03;;;13.31;100.00
47530;BME280;33272;51.922;7.730;2023-05-12T02:43:53;145799.47;;;13.30;100.00
47530;BME280;33272;51.922;7.730;2023-05-12T02:46:20;145795.66;;;13.29;100.00
47530;BME280;33272;51.922;7.730;2023-05-12T02:48:47;145798.19;;;13.30;100.00
47530;BME280;33272;51.922;7.730;2023-05-12T02:51:14;145796.94;;;13.29;100.00
47530;BME280;33272;51.922;7.730;2023-05-12T02:53:43;145793.16;;;13.28;100.00
47530;BME280;33272;51.922;7.730;2023-05-12T02:56:10;145796.94;;;13.29;100.00
47530;BME280;33272;51.922;7.730;2023-05-12T02:58:37;145802.03;;;13.31;100.00
47530;BME280;33272;51.922;7.730;2023-05-12T03:01:04;145804.56;;;13.32;100.00
47530;BME280;33272;51.922;7.730;2023-05-12T03:03:31;145804.56;;;13.32;100.00
47530;BME280;33272;51.922;7.730;2023-05-12T03:05:59;145809.66;;;13.34;100.00
47530;BME280;33272;51.922;7.730;2023-05-12T03:08:26;145807.09;;;13.33;100.00
47530;BME280;33272;51.922;7.730;2023-05-12T03:10:54;145808.41;;;13.34;100.00
47530;BME280;33272;51.922;7.730;2023-05-12T03:13:21;145795.66;;;13.29;100.00
47530;BME280;33272;51.922;7.730;2023-05-12T03:15:48;145802.03;;;13.31;100.00
47530;BME280;33272;51.922;7.730;2023-05-12T03:18:15;145795.66;;;13.29;100.00
47530;BME280;33272;51.922;7.730;2023-05-12T03:20:42;145796.94;;;13.29;100.00
47530;BME280;33272;51.922;7.730;2023-05-12T03:23:09;145789.31;;;13.26;100.00
47530;BME280;33272;51.922;7.730;2023-05-12T03:25:36;145786.78;;;13.25;100.00
47530;BME280;33272;51.922;7.730;2023-05-12T03:28:05;145786.78;;;13.25;100.00
47530;BME280;33272;51.922;7.730;2023-05-12T03:30:32;145775.28;;;13.20;100.00
47530;BME280;33272;51.922;7.730;2023-05-12T03:32:59;145767.66;;;13.17;100.00
47530;BME280;33272;51.922;7.730;2023-05-12T03:35:26;145766.41;;;13.17;100.00
47530;BME280;33272;51.922;7.730;2023-05-12T03:37:53;145767.66;;;13.17;100.00
47530;BME280;33272;51.922;7.730;2023-05-12T03:40:20;145772.75;;;13.19;100.00
47530;BME280;33272;51.922;7.730;2023-05-12T03:42:47;145762.59;;;13.15;100.00
47530;BME280;33272;51.922;7.730;2023-05-12T03:45:16;145774.03;;;13.20;100.00
47530;BME280;33272;51.922;7.730;2023-05-12T03:47:43;145768.97;;;13.18;100.00
47530;BME280;33272;51.922;7.730;2023-05-12T03:50:10;145761.34;;;13.15;100.00
47530;BME280;33272;51.922;7.730;2023-05-12T03:52:37;145761.34;;;13.15;100.00
47530;BME280;33272;51.922;7.730;2023-05-12T03:55:06;145752.41;;;13.11;100.00
47530;BME280;33272;51.922;7.730;2023-05-12T03:57:34;145753.72;;;13.12;100.00
47530;BME280;33272;51.922;7.730;2023-05-12T04:00:04;145755.00;;;13.12;100.00
47530;BME280;33272;51.922;7.730;2023-05-12T04:02:33;145751.16;;;13.11;100.00
47530;BME280;33272;51.922;7.730;2023-05-12T04:05:00;145744.84;;;13.08;100.00
47530;BME280;33272;51.922;7.730;2023-05-12T04:07:26;145747.38;;;13.09;100.00
47530;BME280;33272;51.922;7.730;2023-05-12T04:09:54;145751.16;;;13.11;100.00
47530;BME280;33272;51.922;7.730;2023-05-12T04:12:21;145760.03;;;13.14;100.00
47530;BME280;33272;51.922;7.730;2023-05-12T04:14:48;145765.13;;;13.16;100.00
47530;BME280;33272;51.922;7.730;2023-05-12T04:17:15;145772.75;;;13.19;100.00
47530;BME280;33272;51.922;7.730;2023-05-12T04:19:44;145775.28;;;13.20;100.00
47530;BME280;33272;51.922;7.730;2023-05-12T04:22:11;145785.53;;;13.25;100.00
47530;BME280;33272;51.922;7.730;2023-05-12T04:24:38;145786.78;;;13.25;100.00
47530;BME280;33272;51.922;7.730;2023-05-12T04:27:05;145798.19;;;13.30;100.00
47530;BME280;33272;51.922;7.730;2023-05-12T04:29:32;145803.28;;;13.32;100.00
47530;BME280;33272;51.922;7.730;2023-05-12T04:32:00;145809.66;;;13.34;100.00
47530;BME280;33272;51.922;7.730;2023-05-12T04:34:27;145817.28;;;13.37;100.00
47530;BME280;33272;51.922;7.730;2023-05-12T04:36:55;145822.31;;;13.39;100.00
47530;BME280;33272;51.922;7.730;2023-05-12T04:39:22;145831.25;;;13.43;100.00
47530;BME280;33272;51.922;7.730;2023-05-12T04:41:49;145837.56;;;13.45;100.00
47530;BME280;33272;51.922;7.730;2023-05-12T04:44:16;145849.03;;;13.50;100.00
47530;BME280;33272;51.922;7.730;2023-05-12T04:46:43;145856.66;;;13.53;100.00
47530;BME280;33272;51.922;7.730;2023-05-12T04:49:10;145869.34;;;13.58;100.00
47530;BME280;33272;51.922;7.730;2023-05-12T04:51:37;145884.59;;;13.64;100.00
47530;BME280;33272;51.922;7.730;2023-05-12T04:54:08;145897.31;;;13.70;100.00
47530;BME280;33272;51.922;7.730;2023-05-12T04:56:35;145908.72;;;13.74;100.00
47530;BME280;33272;51.922;7.730;2023-05-12T04:59:02;145927.81;;;13.82;100.00
47530;BME280;33272;51.922;7.730;2023-05-12T05:01:29;145939.22;;;13.86;100.00
47530;BME280;33272;51.922;7.730;2023-05-12T05:03:56;145959.59;;;13.95;100.00
47530;BME280;33272;51.922;7.730;2023-05-12T05:06:23;145971.00;;;13.99;100.00
47530;BME280;33272;51.922;7.730;2023-05-12T05:08:50;145982.47;;;14.04;100.00
47530;BME280;33272;51.922;7.730;2023-05-12T05:11:19;146004.09;;;14.12;100.00
47530;BME280;33272;51.922;7.730;2023-05-12T05:13:47;146007.88;;;14.14;100.00
47530;BME280;33272;51.922;7.730;2023-05-12T05:16:14;146024.41;;;14.21;100.00
47530;BME280;33272;51.922;7.730;2023-05-12T05:18:41;146034.56;;;14.25;100.00
47530;BME280;33272;51.922;7.730;2023-05-12T05:21:11;146047.28;;;14.30;100.00
47530;BME280;33272;51.922;7.730;2023-05-12T05:23:39;146058.75;;;14.34;100.00
47530;BME280;33272;51.922;7.730;2023-05-12T05:26:06;146067.66;;;14.38;100.00
47530;BME280;33272;51.922;7.730;2023-05-12T05:28:34;146075.28;;;14.41;100.00
47530;BME280;33272;51.922;7.730;2023-05-12T05:31:04;146077.81;;;14.42;100.00
47530;BME280;33272;51.922;7.730;2023-05-12T05:33:31;146086.69;;;14.46;100.00
47530;BME280;33272;51.922;7.730;2023-05-12T05:35:58;146087.97;;;14.46;100.00
47530;BME280;33272;51.922;7.730;2023-05-12T05:38:25;146093.06;;;14.48;100.00
47530;BME280;33272;51.922;7.730;2023-05-12T05:40:52;146099.47;;;14.51;100.00
47530;BME280;33272;51.922;7.730;2023-05-12T05:43:19;146116.00;;;14.57;100.00
47530;BME280;33272;51.922;7.730;2023-05-12T05:45:48;146136.31;;;14.66;100.00
47530;BME280;33272;51.922;7.730;2023-05-12T05:48:15;146156.69;;;14.74;100.00
47530;BME280;33272;51.922;7.730;2023-05-12T05:50:42;146165.59;;;14.77;100.00
47530;BME280;33272;51.922;7.730;2023-05-12T05:53:09;146182.13;;;14.84;100.00
47530;BME280;33272;51.922;7.730;2023-05-12T05:55:36;146193.59;;;14.89;100.00
47530;BME280;33272;51.922;7.730;2023-05-12T05:58:03;146205.00;;;14.93;100.00
47530;BME280;33272;51.922;7.730;2023-05-12T06:00:30;146210.13;;;14.95;100.00
47530;BME280;33272;51.922;7.730;2023-05-12T06:02:58;146213.91;;;14.97;100.00
47530;BME280;33272;51.922;7.730;2023-05-12T06:05:25;146219.00;;;14.99;100.00
47530;BME280;33272;51.922;7.730;2023-05-12T06:07:53;146216.47;;;14.98;100.00
47530;BME280;33272;51.922;7.730;2023-05-12T06:10:20;146212.63;;;14.96;100.00
47530;BME280;33272;51.922;7.730;2023-05-12T06:12:47;146227.91;;;15.02;100.00
47530;BME280;33272;51.922;7.730;2023-05-12T06:15:15;146238.06;;;15.06;100.00
47530;BME280;33272;51.922;7.730;2023-05-12T06:17:42;146254.66;;;15.13;100.00
47530;BME280;33272;51.922;7.730;2023-05-12T06:20:11;146276.25;;;15.22;100.00
47530;BME280;33272;51.922;7.730;2023-05-12T06:22:38;146292.78;;;15.28;100.00
47530;BME280;33272;51.922;7.730;2023-05-12T06:25:07;146314.41;;;15.37;100.00
47530;BME280;33272;51.922;7.730;2023-05-12T06:27:34;146339.84;;;15.47;100.00
47530;BME280;33272;51.922;7.730;2023-05-12T06:30:01;146344.97;;;15.49;100.00
47530;BME280;33272;51.922;7.730;2023-05-12T06:32:29;146367.88;;;15.59;100.00
47530;BME280;33272;51.922;7.730;2023-05-12T06:34:56;146383.16;;;15.65;100.00
47530;BME280;33272;51.922;7.730;2023-05-12T06:37:24;146402.25;;;15.72;100.00
47530;BME280;33272;51.922;7.730;2023-05-12T06:39:52;146411.16;;;15.76;100.00
47530;BME280;33272;51.922;7.730;2023-05-12T06:42:19;146443.00;;;15.89;100.00
47530;BME280;33272;51.922;7.730;2023-05-12T06:44:46;146473.53;;;16.01;100.00
47530;BME280;33272;51.922;7.730;2023-05-12T06:47:13;146493.94;;;16.09;100.00
47530;BME280;33272;51.922;7.730;2023-05-12T06:49:39;146523.22;;;16.21;100.00
47530;BME280;33272;51.922;7.730;2023-05-12T06:52:08;146565.22;;;16.38;100.00
47530;BME280;33272;51.922;7.730;2023-05-12T06:54:37;146607.25;;;16.55;100.00
47530;BME280;33272;51.922;7.730;2023-05-12T06:57:04;146628.91;;;16.63;100.00
47530;BME280;33272;51.922;7.730;2023-05-12T06:59:31;146653.09;;;16.73;100.00
47530;BME280;33272;51.922;7.730;2023-05-12T07:01:59;146679.94;;;16.84;100.00
47530;BME280;33272;51.922;7.730;2023-05-12T07:04:26;146724.47;;;17.02;100.00
47530;BME280;33272;51.922;7.730;2023-05-12T07:06:54;146772.91;;;17.21;100.00
47530;BME280;33272;51.922;7.730;2023-05-12T07:09:21;146789.50;;;17.28;100.00
47530;BME280;33272;51.922;7.730;2023-05-12T07:11:49;146790.75;;;17.28;100.00
47530;BME280;33272;51.922;7.730;2023-05-12T07:14:16;146794.56;;;17.30;100.00
47530;BME280;33272;51.922;7.730;2023-05-12T07:16:44;146807.31;;;17.35;100.00
47530;BME280;33272;51.922;7.730;2023-05-12T07:19:11;146812.44;;;17.37;100.00
47530;BME280;33272;51.922;7.730;2023-05-12T07:21:38;146826.44;;;17.43;100.00
47530;BME280;33272;51.922;7.730;2023-05-12T07:24:06;146854.47;;;17.54;100.00
47530;BME280;33272;51.922;7.730;2023-05-12T07:26:33;146879.97;;;17.64;100.00
47530;BME280;33272;51.922;7.730;2023-05-12T07:29:01;146920.78;;;17.80;100.00
47530;BME280;33272;51.922;7.730;2023-05-12T07:31:30;146951.41;;;17.93;100.00
47530;BME280;33272;51.922;7.730;2023-05-12T07:33:58;146966.69;;;17.99;100.00
47530;BME280;33272;51.922;7.730;2023-05-12T07:36:25;146969.22;;;18.00;100.00
47530;BME280;33272;51.922;7.730;2023-05-12T07:38:52;146984.53;;;18.06;100.00
47530;BME280;33272;51.922;7.730;2023-05-12T07:41:19;147003.69;;;18.14;100.00
47530;BME280;33272;51.922;7.730;2023-05-12T07:43:46;147004.97;;;18.14;100.00
47530;BME280;33272;51.922;7.730;2023-05-12T07:46:15;147020.25;;;18.20;100.00
47530;BME280;33272;51.922;7.730;2023-05-12T07:48:42;147036.84;;;18.27;100.00
47530;BME280;33272;51.922;7.730;2023-05-12T07:51:09;147041.94;;;18.29;100.00
47530;BME280;33272;51.922;7.730;2023-05-12T07:53:36;147034.31;;;18.26;100.00
47530;BME280;33272;51.922;7.730;2023-05-12T07:56:03;147039.38;;;18.28;100.00
47530;BME280;33272;51.922;7.730;2023-05-12T07:58:32;147071.25;;;18.41;100.00
47530;BME280;33272;51.922;7.730;2023-05-12T08:00:59;147089.13;;;18.48;100.00
47530;BME280;33272;51.922;7.730;2023-05-12T08:03:32;147080.22;;;18.44;100.00
47530;BME280;33272;51.922;7.730;2023-05-12T08:05:59;147092.94;;;18.49;100.00
47530;BME280;33272;51.922;7.730;2023-05-12T08:08:26;147105.72;;;18.55;100.00
47530;BME280;33272;51.922;7.730;2023-05-12T08:10:53;147114.63;;;18.58;100.00
47530;BME280;33272;51.922;7.730;2023-05-12T08:13:20;147124.84;;;18.62;100.00
47530;BME280;33272;51.922;7.730;2023-05-12T08:15:48;147135.06;;;18.66;100.00
47530;BME280;33272;51.922;7.730;2023-05-12T08:18:15;147147.78;;;18.71;100.00
47530;BME280;33272;51.922;7.730;2023-05-12T08:20:44;147144.00;;;18.70;100.00
47530;BME280;33272;51.922;7.730;2023-05-12T08:23:11;147129.94;;;18.64;100.00
47530;BME280;33272;51.922;7.730;2023-05-12T08:25:38;147098.06;;;18.51;100.00
47530;BME280;33272;51.922;7.730;2023-05-12T08:28:06;147104.44;;;18.54;100.00
47530;BME280;33272;51.922;7.730;2023-05-12T08:30:33;147112.09;;;18.57;100.00
47530;BME280;33272;51.922;7.730;2023-05-12T08:33:00;147129.94;;;18.64;100.00
47530;BME280;33272;51.922;7.730;2023-05-12T08:35:29;147131.22;;;18.65;100.00
47530;BME280;33272;51.922;7.730;2023-05-12T08:37:57;147131.22;;;18.65;100.00
47530;BME280;33272;51.922;7.730;2023-05-12T08:40:30;147122.28;;;18.61;100.00
47530;BME280;33272;51.922;7.730;2023-05-12T08:43:06;147141.41;;;18.69;100.00
47530;BME280;33272;51.922;7.730;2023-05-12T08:45:39;147183.59;;;18.86;100.00
47530;BME280;33272;51.922;7.730;2023-05-12T08:48:09;147202.69;;;18.93;100.00
47530;BME280;33272;51.922;7.730;2023-05-12T08:50:37;147233.34;;;19.06;100.00
47530;BME280;33272;51.922;7.730;2023-05-12T08:53:07;147261.44;;;19.17;100.00
47530;BME280;33272;51.922;7.730;2023-05-12T08:55:36;147271.63;;;19.21;100.00
47530;BME280;33272;51.922;7.730;2023-05-12T08:58:07;147286.94;;;19.27;100.00
47530;BME280;33272;51.922;7.730;2023-05-12T09:00:34;147302.25;;;19.33;100.00
47530;BME280;33272;51.922;7.730;2023-05-12T09:03:05;147321.38;;;19.41;100.00
47530;BME280;33272;51.922;7.730;2023-05-12T09:05:33;147349.47;;;19.52;100.00
47530;BME280;33272;51.922;7.730;2023-05-12T09:08:01;147390.38;;;19.68;100.00
47530;BME280;33272;51.922;7.730;2023-05-12T09:10:30;147426.09;;;19.83;100.00
47530;BME280;33272;51.922;7.730;2023-05-12T09:13:02;147456.75;;;19.95;100.00
47530;BME280;33272;51.922;7.730;2023-05-12T09:15:34;147478.47;;;20.04;100.00
47530;BME280;33272;51.922;7.730;2023-05-12T09:18:10;147530.84;;;20.25;100.00
47530;BME280;33272;51.922;7.730;2023-05-12T09:20:37;147548.72;;;20.32;100.00
47530;BME280;33272;51.922;7.730;2023-05-12T09:23:15;147560.22;;;20.36;100.00
47530;BME280;33272;51.922;7.730;2023-05-12T09:25:44;147558.91;;;20.36;100.00
47530;BME280;33272;51.922;7.730;2023-05-12T09:28:13;147553.84;;;20.34;100.00
47530;BME280;33272;51.922;7.730;2023-05-12T09:30:41;147556.38;;;20.35;100.00
47530;BME280;33272;51.922;7.730;2023-05-12T09:33:09;147565.31;;;20.38;100.00
47530;BME280;33272;51.922;7.730;2023-05-12T09:35:39;147590.84;;;20.49;100.00
47530;BME280;33272;51.922;7.730;2023-05-12T09:38:07;147597.28;;;20.51;100.00
47530;BME280;33272;51.922;7.730;2023-05-12T09:40:35;147616.47;;;20.59;100.00
47530;BME280;33272;51.922;7.730;2023-05-12T09:43:04;147659.88;;;20.76;100.00
47530;BME280;33272;51.922;7.730;2023-05-12T09:45:33;147690.56;;;20.89;100.00
47530;BME280;33272;51.922;7.730;2023-05-12T09:48:08;147734.03;;;21.06;100.00
47530;BME280;33272;51.922;7.730;2023-05-12T09:50:43;147768.53;;;21.20;100.00
47530;BME280;33272;51.922;7.730;2023-05-12T09:53:10;147773.66;;;21.22;100.00
47530;BME280;33272;51.922;7.730;2023-05-12T09:55:38;147791.53;;;21.29;100.00
47530;BME280;33272;51.922;7.730;2023-05-12T09:58:08;147826.06;;;21.43;100.00
47530;BME280;33272;51.922;7.730;2023-05-12T10:00:37;147869.56;;;21.60;100.00
47530;BME280;33272;51.922;7.730;2023-05-12T10:03:10;147914.28;;;21.78;100.00
47530;BME280;33272;51.922;7.730;2023-05-12T10:05:44;147937.28;;;21.87;100.00
47530;BME280;33272;51.922;7.730;2023-05-12T10:08:18;147928.34;;;21.84;100.00
47530;BME280;33272;51.922;7.730;2023-05-12T10:10:48;147909.19;;;21.76;100.00
47530;BME280;33272;51.922;7.730;2023-05-12T10:13:18;147923.28;;;21.82;100.00
47530;BME280;33272;51.922;7.730;2023-05-12T10:15:46;147929.63;;;21.84;100.00
47530;BME280;33272;51.922;7.730;2023-05-12T10:18:15;147898.94;;;21.72;100.00
47530;BME280;33272;51.922;7.730;2023-05-12T10:20:43;147875.97;;;21.63;100.00
47530;BME280;33272;51.922;7.730;2023-05-12T10:23:12;147875.97;;;21.63;100.00
47530;BME280;33272;51.922;7.730;2023-05-12T10:25:40;147897.66;;;21.71;100.00
47530;BME280;33272;51.922;7.730;2023-05-12T10:28:08;147933.47;;;21.86;100.00
47530;BME280;33272;51.922;7.730;2023-05-12T10:30:40;147960.31;;;21.96;100.00
47530;BME280;33272;51.922;7.730;2023-05-12T10:33:08;147979.53;;;22.04;100.00
47530;BME280;33272;51.922;7.730;2023-05-12T10:35:37;148003.81;;;22.14;100.00
47530;BME280;33272;51.922;7.730;2023-05-12T10:38:06;148008.94;;;22.16;100.00
47530;BME280;33272;51.922;7.730;2023-05-12T10:40:33;147973.13;;;22.02;100.00
47530;BME280;33272;51.922;7.730;2023-05-12T10:43:00;147932.22;;;21.85;100.00
47530;BME280;33272;51.922;7.730;2023-05-12T10:45:28;147897.66;;;21.71;100.00
47530;BME280;33272;51.922;7.730;2023-05-12T10:48:06;147881.03;;;21.65;100.00
47530;BME280;33272;51.922;7.730;2023-05-12T10:50:34;147886.19;;;21.67;100.00
47530;BME280;33272;51.922;7.730;2023-05-12T10:53:01;147882.31;;;21.65;100.00
47530;BME280;33272;51.922;7.730;2023-05-12T10:55:34;147878.50;;;21.64;99.58
47530;BME280;33272;51.922;7.730;2023-05-12T10:58:09;147890.00;;;21.68;98.10
47530;BME280;33272;51.922;7.730;2023-05-12T11:00:44;147884.91;;;21.66;98.11
47530;BME280;33272;51.922;7.730;2023-05-12T11:03:15;147875.97;;;21.63;98.65
47530;BME280;33272;51.922;7.730;2023-05-12T11:05:43;147887.44;;;21.67;98.90
47530;BME280;33272;51.922;7.730;2023-05-12T11:08:11;147895.13;;;21.70;98.73
47530;BME280;33272;51.922;7.730;2023-05-12T11:10:40;147920.69;;;21.81;98.27
47530;BME280;33272;51.922;7.730;2023-05-12T11:13:08;147900.25;;;21.72;97.56
47530;BME280;33272;51.922;7.730;2023-05-12T11:15:36;147890.00;;;21.68;96.95
47530;BME280;33272;51.922;7.730;2023-05-12T11:18:03;147870.81;;;21.61;97.64
47530;BME280;33272;51.922;7.730;2023-05-12T11:20:32;147882.31;;;21.65;97.62
47530;BME280;33272;51.922;7.730;2023-05-12T11:22:59;147888.72;;;21.68;98.07
47530;BME280;33272;51.922;7.730;2023-05-12T11:25:26;147920.69;;;21.81;98.54
47530;BME280;33272;51.922;7.730;2023-05-12T11:27:54;147956.50;;;21.95;98.57
47530;BME280;33272;51.922;7.730;2023-05-12T11:30:21;147994.88;;;22.10;98.15
47530;BME280;33272;51.922;7.730;2023-05-12T11:32:59;148015.34;;;22.18;95.12
47530;BME280;33272;51.922;7.730;2023-05-12T11:35:30;148026.88;;;22.23;97.56
47530;BME280;33272;51.922;7.730;2023-05-12T11:37:58;148039.66;;;22.28;97.52
47530;BME280;33272;51.922;7.730;2023-05-12T11:40:27;148055.00;;;22.34;97.33
47530;BME280;33272;51.922;7.730;2023-05-12T11:42:54;148089.56;;;22.48;97.39
47530;BME280;33272;51.922;7.730;2023-05-12T11:45:24;148120.28;;;22.60;96.53
47530;BME280;33272;51.922;7.730;2023-05-12T11:47:52;148140.72;;;22.68;96.03
47530;BME280;33272;51.922;7.730;2023-05-12T11:50:21;148142.00;;;22.69;95.24
47530;BME280;33272;51.922;7.730;2023-05-12T11:52:50;148144.59;;;22.70;94.99
47530;BME280;33272;51.922;7.730;2023-05-12T11:55:23;148142.00;;;22.69;94.00
47530;BME280;33272;51.922;7.730;2023-05-12T11:58:02;148147.13;;;22.71;92.58
47530;BME280;33272;51.922;7.730;2023-05-12T12:00:32;148163.75;;;22.78;92.68
47530;BME280;33272;51.922;7.730;2023-05-12T12:03:08;148159.94;;;22.76;87.60
47530;BME280;33272;51.922;7.730;2023-05-12T12:05:35;148167.63;;;22.79;90.98
47530;BME280;33272;51.922;7.730;2023-05-12T12:08:08;148184.25;;;22.86;89.49
47530;BME280;33272;51.922;7.730;2023-05-12T12:10:36;148176.56;;;22.83;88.57
47530;BME280;33272;51.922;7.730;2023-05-12T12:13:03;148200.88;;;22.93;88.81
47530;BME280;33272;51.922;7.730;2023-05-12T12:15:31;148213.69;;;22.98;88.21
47530;BME280;33272;51.922;7.730;2023-05-12T12:17:58;148226.50;;;23.03;88.09
47530;BME280;33272;51.922;7.730;2023-05-12T12:20:25;148272.59;;;23.21;88.62
47530;BME280;33272;51.922;7.730;2023-05-12T12:22:52;148313.53;;;23.38;88.23
47530;BME280;33272;51.922;7.730;2023-05-12T12:25:20;148319.97;;;23.40;87.20
47530;BME280;33272;51.922;7.730;2023-05-12T12:27:49;148318.69;;;23.40;84.88
47530;BME280;33272;51.922;7.730;2023-05-12T12:30:17;148305.88;;;23.34;86.06
47530;BME280;33272;51.922;7.730;2023-05-12T12:32:44;148289.22;;;23.28;85.68
47530;BME280;33272;51.922;7.730;2023-05-12T12:35:12;148263.63;;;23.18;84.57
47530;BME280;33272;51.922;7.730;2023-05-12T12:37:40;148232.91;;;23.05;84.35
47530;BME280;33272;51.922;7.730;2023-05-12T12:40:08;148207.34;;;22.95;83.63
47530;BME280;33272;51.922;7.730;2023-05-12T12:42:37;148179.13;;;22.84;84.03
47530;BME280;33272;51.922;7.730;2023-05-12T12:45:08;148157.34;;;22.75;83.10